Fortville, Indiana
Current Conditions -  °F | °C
As of 10:15 AM on Friday 31 Oct 2014 (Local Time) from KMQJ Reporting Station
Overcast Overcast  
Wind Chill: 35°   Ceiling: 1600
Heat Index: 43°   Visibility: 5mi
Dew Point: 39°   Wind: 17mph
Humidity: 87%   Direction: 330°NNW
Pressure: 29.99"   Gusts: 22mph
Location:  39.93°N, 85.85°W
Report Text: KMQJ 311415Z AUTO 33015G19KT 5SM SCT008 OVC016 06/04 A2999 RMK AO1
Loading
Personal Weather Stations






























Interactive Weather Map
Tropical Storm Tracking
New forecast layout! Learn more

10-Day Weather Forecast

Advertisements
Track Severe Weather on mobile